sensor_id;sensor_type;location;lat;lon;timestamp;P1;durP1;ratioP1;P2;durP2;ratioP2
28724;SDS011;43472;48.980;9.646;2022-11-03T00:04:45;12.43;;;4.40;;
28724;SDS011;43472;48.980;9.646;2022-11-03T00:09:47;21.58;;;9.18;;
28724;SDS011;43472;48.980;9.646;2022-11-03T00:14:49;35.67;;;13.82;;
28724;SDS011;43472;48.980;9.646;2022-11-03T00:19:51;10.85;;;4.57;;
28724;SDS011;43472;48.980;9.646;2022-11-03T00:24:53;6.88;;;2.90;;
28724;SDS011;43472;48.980;9.646;2022-11-03T00:29:54;7.68;;;2.70;;
28724;SDS011;43472;48.980;9.646;2022-11-03T00:34:56;10.55;;;2.67;;
28724;SDS011;43472;48.980;9.646;2022-11-03T00:39:58;4.35;;;2.35;;
28724;SDS011;43472;48.980;9.646;2022-11-03T00:45:00;10.13;;;2.83;;
28724;SDS011;43472;48.980;9.646;2022-11-03T00:50:02;9.32;;;4.07;;
28724;SDS011;43472;48.980;9.646;2022-11-03T00:55:04;9.30;;;3.65;;
28724;SDS011;43472;48.980;9.646;2022-11-03T01:00:06;4.78;;;2.15;;
28724;SDS011;43472;48.980;9.646;2022-11-03T01:05:09;6.60;;;2.78;;
28724;SDS011;43472;48.980;9.646;2022-11-03T01:10:29;9.68;;;3.33;;
28724;SDS011;43472;48.980;9.646;2022-11-03T01:15:31;8.38;;;2.20;;
28724;SDS011;43472;48.980;9.646;2022-11-03T01:20:32;4.78;;;2.50;;
28724;SDS011;43472;48.980;9.646;2022-11-03T01:25:34;7.57;;;2.58;;
28724;SDS011;43472;48.980;9.646;2022-11-03T01:30:36;5.57;;;2.00;;
28724;SDS011;43472;48.980;9.646;2022-11-03T01:35:38;8.65;;;2.40;;
28724;SDS011;43472;48.980;9.646;2022-11-03T01:40:40;10.07;;;3.35;;
28724;SDS011;43472;48.980;9.646;2022-11-03T01:45:42;3.92;;;2.30;;
28724;SDS011;43472;48.980;9.646;2022-11-03T01:50:44;11.93;;;3.38;;
28724;SDS011;43472;48.980;9.646;2022-11-03T01:55:48;9.73;;;3.80;;
28724;SDS011;43472;48.980;9.646;2022-11-03T02:00:52;11.45;;;3.72;;
28724;SDS011;43472;48.980;9.646;2022-11-03T02:05:56;7.28;;;2.58;;
28724;SDS011;43472;48.980;9.646;2022-11-03T02:10:58;6.75;;;2.33;;
28724;SDS011;43472;48.980;9.646;2022-11-03T02:16:00;5.32;;;2.50;;
28724;SDS011;43472;48.980;9.646;2022-11-03T02:21:05;5.88;;;2.60;;
28724;SDS011;43472;48.980;9.646;2022-11-03T02:26:16;10.93;;;3.10;;
28724;SDS011;43472;48.980;9.646;2022-11-03T02:36:36;6.80;;;2.17;;
28724;SDS011;43472;48.980;9.646;2022-11-03T02:41:43;5.15;;;2.33;;
28724;SDS011;43472;48.980;9.646;2022-11-03T02:46:49;7.90;;;2.60;;
28724;SDS011;43472;48.980;9.646;2022-11-03T02:51:59;2.95;;;2.05;;
28724;SDS011;43472;48.980;9.646;2022-11-03T02:57:04;6.05;;;2.47;;
28724;SDS011;43472;48.980;9.646;2022-11-03T03:02:11;8.48;;;2.90;;
28724;SDS011;43472;48.980;9.646;2022-11-03T03:07:23;8.90;;;2.83;;
28724;SDS011;43472;48.980;9.646;2022-11-03T03:12:27;4.57;;;2.40;;
28724;SDS011;43472;48.980;9.646;2022-11-03T03:17:41;10.13;;;2.70;;
28724;SDS011;43472;48.980;9.646;2022-11-03T03:27:59;5.47;;;2.35;;
28724;SDS011;43472;48.980;9.646;2022-11-03T03:33:23;12.77;;;3.35;;
28724;SDS011;43472;48.980;9.646;2022-11-03T03:38:34;5.43;;;2.88;;
28724;SDS011;43472;48.980;9.646;2022-11-03T03:43:40;5.90;;;2.60;;
28724;SDS011;43472;48.980;9.646;2022-11-03T03:48:42;10.50;;;4.18;;
28724;SDS011;43472;48.980;9.646;2022-11-03T03:53:48;10.77;;;4.47;;
28724;SDS011;43472;48.980;9.646;2022-11-03T03:58:51;5.80;;;2.85;;
28724;SDS011;43472;48.980;9.646;2022-11-03T04:03:52;7.40;;;2.83;;
28724;SDS011;43472;48.980;9.646;2022-11-03T04:08:54;21.88;;;5.30;;
28724;SDS011;43472;48.980;9.646;2022-11-03T04:13:56;28.25;;;8.43;;
28724;SDS011;43472;48.980;9.646;2022-11-03T04:19:16;16.25;;;6.20;;
28724;SDS011;43472;48.980;9.646;2022-11-03T04:24:36;7.22;;;2.85;;
28724;SDS011;43472;48.980;9.646;2022-11-03T04:29:38;7.22;;;3.00;;
28724;SDS011;43472;48.980;9.646;2022-11-03T04:34:40;7.25;;;3.20;;
28724;SDS011;43472;48.980;9.646;2022-11-03T04:39:42;8.93;;;3.08;;
28724;SDS011;43472;48.980;9.646;2022-11-03T04:44:45;15.88;;;6.53;;
28724;SDS011;43472;48.980;9.646;2022-11-03T04:49:47;20.35;;;8.77;;
28724;SDS011;43472;48.980;9.646;2022-11-03T04:54:49;25.27;;;9.05;;
28724;SDS011;43472;48.980;9.646;2022-11-03T04:59:53;14.77;;;7.07;;
28724;SDS011;43472;48.980;9.646;2022-11-03T05:04:56;8.38;;;3.70;;
28724;SDS011;43472;48.980;9.646;2022-11-03T05:10:01;17.30;;;5.93;;
28724;SDS011;43472;48.980;9.646;2022-11-03T05:15:06;11.60;;;5.57;;
28724;SDS011;43472;48.980;9.646;2022-11-03T05:20:25;9.63;;;5.05;;
28724;SDS011;43472;48.980;9.646;2022-11-03T05:25:37;5.90;;;3.15;;
28724;SDS011;43472;48.980;9.646;2022-11-03T05:30:43;5.40;;;2.75;;
28724;SDS011;43472;48.980;9.646;2022-11-03T05:35:45;22.73;;;8.05;;
28724;SDS011;43472;48.980;9.646;2022-11-03T05:40:48;11.20;;;5.28;;
28724;SDS011;43472;48.980;9.646;2022-11-03T05:45:54;6.63;;;2.90;;
28724;SDS011;43472;48.980;9.646;2022-11-03T05:50:58;5.47;;;3.30;;
28724;SDS011;43472;48.980;9.646;2022-11-03T05:56:03;5.68;;;3.25;;
28724;SDS011;43472;48.980;9.646;2022-11-03T06:01:15;6.90;;;3.17;;
28724;SDS011;43472;48.980;9.646;2022-11-03T06:06:24;9.02;;;2.47;;
28724;SDS011;43472;48.980;9.646;2022-11-03T06:11:34;4.22;;;3.10;;
28724;SDS011;43472;48.980;9.646;2022-11-03T06:16:38;10.82;;;5.30;;
28724;SDS011;43472;48.980;9.646;2022-11-03T06:21:42;9.48;;;4.80;;
28724;SDS011;43472;48.980;9.646;2022-11-03T06:26:45;13.60;;;5.32;;
28724;SDS011;43472;48.980;9.646;2022-11-03T06:31:51;12.45;;;5.78;;
28724;SDS011;43472;48.980;9.646;2022-11-03T06:36:56;13.63;;;4.47;;
28724;SDS011;43472;48.980;9.646;2022-11-03T06:42:12;7.65;;;3.50;;
28724;SDS011;43472;48.980;9.646;2022-11-03T06:57:28;21.77;;;10.82;;
28724;SDS011;43472;48.980;9.646;2022-11-03T07:07:59;18.70;;;8.18;;
28724;SDS011;43472;48.980;9.646;2022-11-03T07:13:13;20.08;;;7.47;;
28724;SDS011;43472;48.980;9.646;2022-11-03T07:18:20;16.75;;;7.80;;
28724;SDS011;43472;48.980;9.646;2022-11-03T07:23:28;11.20;;;5.38;;
28724;SDS011;43472;48.980;9.646;2022-11-03T07:28:32;13.68;;;6.35;;
28724;SDS011;43472;48.980;9.646;2022-11-03T07:33:36;22.75;;;12.55;;
28724;SDS011;43472;48.980;9.646;2022-11-03T07:38:38;16.00;;;6.95;;
28724;SDS011;43472;48.980;9.646;2022-11-03T07:43:40;31.25;;;16.73;;
28724;SDS011;43472;48.980;9.646;2022-11-03T07:48:45;14.10;;;5.55;;
28724;SDS011;43472;48.980;9.646;2022-11-03T07:53:49;7.70;;;5.13;;
28724;SDS011;43472;48.980;9.646;2022-11-03T08:04:12;31.30;;;14.82;;
28724;SDS011;43472;48.980;9.646;2022-11-03T08:09:20;37.00;;;19.00;;
28724;SDS011;43472;48.980;9.646;2022-11-03T08:14:22;49.70;;;23.27;;
28724;SDS011;43472;48.980;9.646;2022-11-03T08:19:23;37.42;;;21.27;;
28724;SDS011;43472;48.980;9.646;2022-11-03T08:24:25;24.08;;;15.27;;
28724;SDS011;43472;48.980;9.646;2022-11-03T08:29:27;13.77;;;6.93;;
28724;SDS011;43472;48.980;9.646;2022-11-03T08:34:28;9.75;;;5.75;;
28724;SDS011;43472;48.980;9.646;2022-11-03T08:39:30;11.55;;;7.10;;
28724;SDS011;43472;48.980;9.646;2022-11-03T08:44:32;9.93;;;5.10;;
28724;SDS011;43472;48.980;9.646;2022-11-03T08:49:34;11.30;;;6.90;;
28724;SDS011;43472;48.980;9.646;2022-11-03T08:54:35;17.13;;;9.55;;
28724;SDS011;43472;48.980;9.646;2022-11-03T08:59:37;16.42;;;8.75;;
28724;SDS011;43472;48.980;9.646;2022-11-03T09:04:39;20.52;;;9.35;;
28724;SDS011;43472;48.980;9.646;2022-11-03T09:09:41;14.93;;;8.07;;
28724;SDS011;43472;48.980;9.646;2022-11-03T09:15:03;15.00;;;9.13;;
28724;SDS011;43472;48.980;9.646;2022-11-03T09:20:06;11.05;;;6.68;;
28724;SDS011;43472;48.980;9.646;2022-11-03T09:25:08;14.05;;;6.78;;
28724;SDS011;43472;48.980;9.646;2022-11-03T09:30:10;17.67;;;7.65;;
28724;SDS011;43472;48.980;9.646;2022-11-03T09:35:14;64.00;;;35.83;;
28724;SDS011;43472;48.980;9.646;2022-11-03T09:40:16;11.10;;;5.85;;
28724;SDS011;43472;48.980;9.646;2022-11-03T09:45:19;20.75;;;6.65;;
28724;SDS011;43472;48.980;9.646;2022-11-03T09:50:21;9.63;;;4.85;;
28724;SDS011;43472;48.980;9.646;2022-11-03T09:55:24;11.55;;;5.93;;
28724;SDS011;43472;48.980;9.646;2022-11-03T10:00:27;9.35;;;4.70;;
28724;SDS011;43472;48.980;9.646;2022-11-03T10:05:28;9.50;;;4.97;;
28724;SDS011;43472;48.980;9.646;2022-11-03T10:10:31;12.70;;;5.20;;
28724;SDS011;43472;48.980;9.646;2022-11-03T10:15:33;12.90;;;4.15;;
28724;SDS011;43472;48.980;9.646;2022-11-03T10:20:35;7.72;;;3.05;;
28724;SDS011;43472;48.980;9.646;2022-11-03T10:25:39;5.32;;;2.42;;
28724;SDS011;43472;48.980;9.646;2022-11-03T10:30:49;4.32;;;1.80;;
28724;SDS011;43472;48.980;9.646;2022-11-03T10:41:19;7.47;;;2.78;;
28724;SDS011;43472;48.980;9.646;2022-11-03T10:46:29;9.48;;;2.70;;
28724;SDS011;43472;48.980;9.646;2022-11-03T10:51:52;3.85;;;2.10;;
28724;SDS011;43472;48.980;9.646;2022-11-03T10:56:57;4.60;;;2.00;;
28724;SDS011;43472;48.980;9.646;2022-11-03T11:01:59;4.65;;;1.90;;
28724;SDS011;43472;48.980;9.646;2022-11-03T11:07:01;6.00;;;1.75;;
28724;SDS011;43472;48.980;9.646;2022-11-03T11:12:14;3.88;;;2.28;;
28724;SDS011;43472;48.980;9.646;2022-11-03T11:22:38;4.07;;;1.92;;
28724;SDS011;43472;48.980;9.646;2022-11-03T11:37:46;3.33;;;1.70;;
28724;SDS011;43472;48.980;9.646;2022-11-03T11:48:14;6.55;;;1.40;;
28724;SDS011;43472;48.980;9.646;2022-11-03T11:53:20;2.90;;;1.60;;
28724;SDS011;43472;48.980;9.646;2022-11-03T12:03:38;5.93;;;1.70;;
28724;SDS011;43472;48.980;9.646;2022-11-03T12:08:43;3.40;;;2.25;;
28724;SDS011;43472;48.980;9.646;2022-11-03T12:13:49;9.35;;;1.95;;
28724;SDS011;43472;48.980;9.646;2022-11-03T12:18:52;3.67;;;1.70;;
28724;SDS011;43472;48.980;9.646;2022-11-03T12:23:55;4.78;;;1.83;;
28724;SDS011;43472;48.980;9.646;2022-11-03T12:28:57;7.88;;;3.47;;
28724;SDS011;43472;48.980;9.646;2022-11-03T12:33:59;3.33;;;2.10;;
28724;SDS011;43472;48.980;9.646;2022-11-03T12:39:01;3.90;;;1.48;;
28724;SDS011;43472;48.980;9.646;2022-11-03T12:44:02;4.50;;;1.40;;
28724;SDS011;43472;48.980;9.646;2022-11-03T12:49:04;2.72;;;1.35;;
28724;SDS011;43472;48.980;9.646;2022-11-03T12:54:06;5.53;;;1.20;;
28724;SDS011;43472;48.980;9.646;2022-11-03T12:59:08;2.10;;;1.23;;
28724;SDS011;43472;48.980;9.646;2022-11-03T13:04:10;4.82;;;1.73;;
28724;SDS011;43472;48.980;9.646;2022-11-03T13:09:12;3.55;;;1.83;;
28724;SDS011;43472;48.980;9.646;2022-11-03T13:14:14;3.45;;;1.50;;
28724;SDS011;43472;48.980;9.646;2022-11-03T13:19:15;3.28;;;1.42;;
28724;SDS011;43472;48.980;9.646;2022-11-03T13:24:17;3.90;;;1.70;;
28724;SDS011;43472;48.980;9.646;2022-11-03T13:29:19;3.53;;;1.45;;
28724;SDS011;43472;48.980;9.646;2022-11-03T13:34:21;2.92;;;1.40;;
28724;SDS011;43472;48.980;9.646;2022-11-03T13:39:22;4.55;;;1.38;;
28724;SDS011;43472;48.980;9.646;2022-11-03T13:44:24;7.43;;;2.65;;
28724;SDS011;43472;48.980;9.646;2022-11-03T13:49:26;9.50;;;5.30;;
28724;SDS011;43472;48.980;9.646;2022-11-03T13:54:48;4.93;;;1.83;;
28724;SDS011;43472;48.980;9.646;2022-11-03T14:00:11;3.30;;;1.60;;
28724;SDS011;43472;48.980;9.646;2022-11-03T14:05:17;3.50;;;1.70;;
28724;SDS011;43472;48.980;9.646;2022-11-03T14:10:18;3.00;;;1.80;;
28724;SDS011;43472;48.980;9.646;2022-11-03T14:15:20;2.97;;;1.60;;
28724;SDS011;43472;48.980;9.646;2022-11-03T14:20:22;4.38;;;1.75;;
28724;SDS011;43472;48.980;9.646;2022-11-03T14:25:24;3.13;;;1.75;;
28724;SDS011;43472;48.980;9.646;2022-11-03T14:30:25;6.93;;;2.42;;
28724;SDS011;43472;48.980;9.646;2022-11-03T14:35:27;4.15;;;1.67;;
28724;SDS011;43472;48.980;9.646;2022-11-03T14:40:29;4.03;;;1.70;;
28724;SDS011;43472;48.980;9.646;2022-11-03T14:45:49;3.58;;;1.90;;
28724;SDS011;43472;48.980;9.646;2022-11-03T14:50:51;4.32;;;1.77;;
28724;SDS011;43472;48.980;9.646;2022-11-03T14:55:53;8.18;;;2.17;;
28724;SDS011;43472;48.980;9.646;2022-11-03T15:00:55;4.03;;;1.67;;
28724;SDS011;43472;48.980;9.646;2022-11-03T15:05:57;10.32;;;3.22;;
28724;SDS011;43472;48.980;9.646;2022-11-03T15:10:59;2.30;;;1.58;;
28724;SDS011;43472;48.980;9.646;2022-11-03T15:16:00;5.30;;;1.65;;
28724;SDS011;43472;48.980;9.646;2022-11-03T15:21:02;4.60;;;2.50;;
28724;SDS011;43472;48.980;9.646;2022-11-03T15:26:07;5.30;;;2.33;;
28724;SDS011;43472;48.980;9.646;2022-11-03T15:31:09;4.85;;;1.90;;
28724;SDS011;43472;48.980;9.646;2022-11-03T15:36:11;6.22;;;2.38;;
28724;SDS011;43472;48.980;9.646;2022-11-03T15:41:13;27.55;;;16.58;;
28724;SDS011;43472;48.980;9.646;2022-11-03T15:46:19;14.88;;;8.02;;
28724;SDS011;43472;48.980;9.646;2022-11-03T15:51:21;8.23;;;4.90;;
28724;SDS011;43472;48.980;9.646;2022-11-03T15:56:23;5.63;;;3.20;;
28724;SDS011;43472;48.980;9.646;2022-11-03T16:01:25;6.53;;;3.97;;
28724;SDS011;43472;48.980;9.646;2022-11-03T16:06:27;23.73;;;11.23;;
28724;SDS011;43472;48.980;9.646;2022-11-03T16:11:49;10.32;;;5.70;;
28724;SDS011;43472;48.980;9.646;2022-11-03T16:16:51;12.52;;;5.97;;
28724;SDS011;43472;48.980;9.646;2022-11-03T16:21:52;11.27;;;5.57;;
28724;SDS011;43472;48.980;9.646;2022-11-03T16:26:54;6.25;;;3.80;;
28724;SDS011;43472;48.980;9.646;2022-11-03T16:31:56;6.63;;;2.78;;
28724;SDS011;43472;48.980;9.646;2022-11-03T16:36:58;4.07;;;2.20;;
28724;SDS011;43472;48.980;9.646;2022-11-03T16:42:00;3.47;;;2.47;;
28724;SDS011;43472;48.980;9.646;2022-11-03T16:47:03;8.73;;;2.97;;
28724;SDS011;43472;48.980;9.646;2022-11-03T16:52:05;4.03;;;2.60;;
28724;SDS011;43472;48.980;9.646;2022-11-03T16:57:09;4.38;;;2.53;;
28724;SDS011;43472;48.980;9.646;2022-11-03T17:02:12;6.07;;;2.90;;
28724;SDS011;43472;48.980;9.646;2022-11-03T17:07:16;5.45;;;2.80;;
28724;SDS011;43472;48.980;9.646;2022-11-03T17:12:18;10.20;;;3.13;;
28724;SDS011;43472;48.980;9.646;2022-11-03T17:17:20;8.57;;;4.15;;
28724;SDS011;43472;48.980;9.646;2022-11-03T17:22:22;5.55;;;2.88;;
28724;SDS011;43472;48.980;9.646;2022-11-03T17:27:25;6.13;;;3.00;;
28724;SDS011;43472;48.980;9.646;2022-11-03T17:32:34;4.53;;;2.78;;
28724;SDS011;43472;48.980;9.646;2022-11-03T17:37:39;4.90;;;3.58;;
28724;SDS011;43472;48.980;9.646;2022-11-03T17:42:41;16.48;;;8.10;;
28724;SDS011;43472;48.980;9.646;2022-11-03T17:47:43;16.73;;;8.65;;
28724;SDS011;43472;48.980;9.646;2022-11-03T17:52:45;28.77;;;12.18;;
28724;SDS011;43472;48.980;9.646;2022-11-03T17:57:48;12.55;;;4.30;;
28724;SDS011;43472;48.980;9.646;2022-11-03T18:02:50;14.98;;;7.50;;
28724;SDS011;43472;48.980;9.646;2022-11-03T18:07:53;9.52;;;5.65;;
28724;SDS011;43472;48.980;9.646;2022-11-03T18:12:56;21.52;;;11.43;;
28724;SDS011;43472;48.980;9.646;2022-11-03T18:28:25;16.30;;;8.38;;
28724;SDS011;43472;48.980;9.646;2022-11-03T18:33:28;26.35;;;13.32;;
28724;SDS011;43472;48.980;9.646;2022-11-03T18:38:33;33.75;;;17.65;;
28724;SDS011;43472;48.980;9.646;2022-11-03T18:43:36;55.22;;;29.92;;
28724;SDS011;43472;48.980;9.646;2022-11-03T18:48:38;71.32;;;34.88;;
28724;SDS011;43472;48.980;9.646;2022-11-03T18:53:40;16.52;;;8.88;;
28724;SDS011;43472;48.980;9.646;2022-11-03T18:58:42;51.03;;;25.73;;
28724;SDS011;43472;48.980;9.646;2022-11-03T19:03:44;25.92;;;15.55;;
28724;SDS011;43472;48.980;9.646;2022-11-03T19:08:46;96.07;;;48.28;;
28724;SDS011;43472;48.980;9.646;2022-11-03T19:13:52;36.80;;;17.52;;
28724;SDS011;43472;48.980;9.646;2022-11-03T19:18:54;15.93;;;9.48;;
28724;SDS011;43472;48.980;9.646;2022-11-03T19:23:58;19.60;;;9.77;;
28724;SDS011;43472;48.980;9.646;2022-11-03T19:29:08;17.58;;;8.50;;
28724;SDS011;43472;48.980;9.646;2022-11-03T19:34:14;22.35;;;13.52;;
28724;SDS011;43472;48.980;9.646;2022-11-03T19:39:22;30.85;;;18.83;;
28724;SDS011;43472;48.980;9.646;2022-11-03T19:44:45;16.63;;;10.80;;
28724;SDS011;43472;48.980;9.646;2022-11-03T19:49:47;15.82;;;8.18;;
28724;SDS011;43472;48.980;9.646;2022-11-03T19:54:49;24.60;;;15.05;;
28724;SDS011;43472;48.980;9.646;2022-11-03T19:59:51;22.73;;;12.05;;
28724;SDS011;43472;48.980;9.646;2022-11-03T20:04:58;39.67;;;23.30;;
28724;SDS011;43472;48.980;9.646;2022-11-03T20:10:00;33.00;;;18.25;;
28724;SDS011;43472;48.980;9.646;2022-11-03T20:15:08;20.63;;;9.90;;
28724;SDS011;43472;48.980;9.646;2022-11-03T20:20:14;20.80;;;10.80;;
28724;SDS011;43472;48.980;9.646;2022-11-03T20:25:22;21.48;;;12.80;;
28724;SDS011;43472;48.980;9.646;2022-11-03T20:30:27;24.58;;;14.68;;
28724;SDS011;43472;48.980;9.646;2022-11-03T20:35:29;16.38;;;11.25;;
28724;SDS011;43472;48.980;9.646;2022-11-03T20:40:39;18.40;;;9.63;;
28724;SDS011;43472;48.980;9.646;2022-11-03T20:45:41;14.00;;;9.43;;
28724;SDS011;43472;48.980;9.646;2022-11-03T20:50:43;16.02;;;10.20;;
28724;SDS011;43472;48.980;9.646;2022-11-03T20:55:45;19.63;;;10.68;;
28724;SDS011;43472;48.980;9.646;2022-11-03T21:00:48;21.38;;;9.15;;
28724;SDS011;43472;48.980;9.646;2022-11-03T21:05:51;19.95;;;9.38;;
28724;SDS011;43472;48.980;9.646;2022-11-03T21:10:53;27.83;;;14.95;;
28724;SDS011;43472;48.980;9.646;2022-11-03T21:16:15;24.13;;;12.30;;
28724;SDS011;43472;48.980;9.646;2022-11-03T21:21:35;21.23;;;11.60;;
28724;SDS011;43472;48.980;9.646;2022-11-03T21:26:37;32.30;;;15.98;;
28724;SDS011;43472;48.980;9.646;2022-11-03T21:31:40;24.10;;;13.18;;
28724;SDS011;43472;48.980;9.646;2022-11-03T21:36:41;18.45;;;10.18;;
28724;SDS011;43472;48.980;9.646;2022-11-03T21:41:43;17.88;;;10.90;;
28724;SDS011;43472;48.980;9.646;2022-11-03T21:47:04;53.83;;;24.35;;
28724;SDS011;43472;48.980;9.646;2022-11-03T21:52:05;20.15;;;11.15;;
28724;SDS011;43472;48.980;9.646;2022-11-03T21:57:08;27.35;;;12.65;;
28724;SDS011;43472;48.980;9.646;2022-11-03T22:02:11;26.10;;;12.55;;
28724;SDS011;43472;48.980;9.646;2022-11-03T22:07:13;14.00;;;8.27;;
28724;SDS011;43472;48.980;9.646;2022-11-03T22:12:15;15.52;;;9.40;;
28724;SDS011;43472;48.980;9.646;2022-11-03T22:17:16;14.63;;;7.72;;
28724;SDS011;43472;48.980;9.646;2022-11-03T22:22:18;26.45;;;14.68;;
28724;SDS011;43472;48.980;9.646;2022-11-03T22:27:39;21.27;;;10.98;;
28724;SDS011;43472;48.980;9.646;2022-11-03T22:32:41;29.13;;;12.65;;
28724;SDS011;43472;48.980;9.646;2022-11-03T22:37:43;28.67;;;12.68;;
28724;SDS011;43472;48.980;9.646;2022-11-03T22:42:45;14.38;;;8.75;;
28724;SDS011;43472;48.980;9.646;2022-11-03T22:48:06;10.32;;;5.60;;
28724;SDS011;43472;48.980;9.646;2022-11-03T22:53:07;6.03;;;4.07;;
28724;SDS011;43472;48.980;9.646;2022-11-03T22:58:28;8.63;;;4.97;;
28724;SDS011;43472;48.980;9.646;2022-11-03T23:03:34;11.15;;;5.55;;
28724;SDS011;43472;48.980;9.646;2022-11-03T23:08:38;12.45;;;6.03;;
28724;SDS011;43472;48.980;9.646;2022-11-03T23:13:42;11.98;;;6.72;;
28724;SDS011;43472;48.980;9.646;2022-11-03T23:18:46;5.90;;;4.60;;
28724;SDS011;43472;48.980;9.646;2022-11-03T23:24:07;6.40;;;3.00;;
28724;SDS011;43472;48.980;9.646;2022-11-03T23:29:27;7.75;;;3.33;;
28724;SDS011;43472;48.980;9.646;2022-11-03T23:34:29;6.68;;;2.72;;
28724;SDS011;43472;48.980;9.646;2022-11-03T23:39:31;4.85;;;2.83;;
28724;SDS011;43472;48.980;9.646;2022-11-03T23:44:33;4.78;;;2.72;;
28724;SDS011;43472;48.980;9.646;2022-11-03T23:49:53;6.40;;;2.60;;
28724;SDS011;43472;48.980;9.646;2022-11-03T23:54:55;5.55;;;2.90;;
28724;SDS011;43472;48.980;9.646;2022-11-03T23:59:56;5.68;;;2.25;;
